sensor_id;sensor_type;location;lat;lon;timestamp;P1;durP1;ratioP1;P2;durP2;ratioP2
18172;SDS011;9211;48.818;9.312;2023-08-06T00:00:55;5.65;;;3.30;;
18172;SDS011;9211;48.818;9.312;2023-08-06T00:03:24;4.88;;;3.17;;
18172;SDS011;9211;48.818;9.312;2023-08-06T00:05:49;7.15;;;3.20;;
18172;SDS011;9211;48.818;9.312;2023-08-06T00:08:16;6.68;;;3.05;;
18172;SDS011;9211;48.818;9.312;2023-08-06T00:10:43;6.03;;;3.17;;
18172;SDS011;9211;48.818;9.312;2023-08-06T00:13:10;4.03;;;3.38;;
18172;SDS011;9211;48.818;9.312;2023-08-06T00:15:37;4.82;;;3.30;;
18172;SDS011;9211;48.818;9.312;2023-08-06T00:18:04;5.23;;;3.47;;
18172;SDS011;9211;48.818;9.312;2023-08-06T00:20:32;4.47;;;3.42;;
18172;SDS011;9211;48.818;9.312;2023-08-06T00:22:59;5.27;;;3.67;;
18172;SDS011;9211;48.818;9.312;2023-08-06T00:25:26;4.70;;;3.55;;
18172;SDS011;9211;48.818;9.312;2023-08-06T00:27:53;5.60;;;3.70;;
18172;SDS011;9211;48.818;9.312;2023-08-06T00:30:21;5.35;;;3.70;;
18172;SDS011;9211;48.818;9.312;2023-08-06T00:32:49;5.30;;;3.78;;
18172;SDS011;9211;48.818;9.312;2023-08-06T00:35:16;6.93;;;3.50;;
18172;SDS011;9211;48.818;9.312;2023-08-06T00:37:45;6.05;;;3.45;;
18172;SDS011;9211;48.818;9.312;2023-08-06T00:40:12;6.57;;;3.70;;
18172;SDS011;9211;48.818;9.312;2023-08-06T00:42:39;5.70;;;4.00;;
18172;SDS011;9211;48.818;9.312;2023-08-06T00:45:06;6.53;;;4.00;;
18172;SDS011;9211;48.818;9.312;2023-08-06T00:47:34;6.32;;;4.10;;
18172;SDS011;9211;48.818;9.312;2023-08-06T00:50:01;7.00;;;4.20;;
18172;SDS011;9211;48.818;9.312;2023-08-06T00:52:28;6.85;;;4.10;;
18172;SDS011;9211;48.818;9.312;2023-08-06T00:54:56;6.40;;;4.25;;
18172;SDS011;9211;48.818;9.312;2023-08-06T00:57:24;6.32;;;4.25;;
18172;SDS011;9211;48.818;9.312;2023-08-06T00:59:51;6.43;;;4.20;;
18172;SDS011;9211;48.818;9.312;2023-08-06T01:02:19;6.03;;;4.10;;
18172;SDS011;9211;48.818;9.312;2023-08-06T01:04:46;5.55;;;4.28;;
18172;SDS011;9211;48.818;9.312;2023-08-06T01:07:16;8.25;;;3.95;;
18172;SDS011;9211;48.818;9.312;2023-08-06T01:09:57;5.60;;;4.20;;
18172;SDS011;9211;48.818;9.312;2023-08-06T01:12:41;7.10;;;4.07;;
18172;SDS011;9211;48.818;9.312;2023-08-06T01:15:17;6.60;;;4.40;;
18172;SDS011;9211;48.818;9.312;2023-08-06T01:17:47;5.20;;;3.93;;
18172;SDS011;9211;48.818;9.312;2023-08-06T01:20:15;5.55;;;4.13;;
18172;SDS011;9211;48.818;9.312;2023-08-06T01:22:43;10.30;;;4.80;;
18172;SDS011;9211;48.818;9.312;2023-08-06T01:25:10;5.38;;;4.10;;
18172;SDS011;9211;48.818;9.312;2023-08-06T01:27:43;7.47;;;4.30;;
18172;SDS011;9211;48.818;9.312;2023-08-06T01:30:15;5.82;;;4.00;;
18172;SDS011;9211;48.818;9.312;2023-08-06T01:32:46;6.15;;;4.10;;
18172;SDS011;9211;48.818;9.312;2023-08-06T01:35:17;7.45;;;4.43;;
18172;SDS011;9211;48.818;9.312;2023-08-06T01:37:47;8.25;;;4.38;;
18172;SDS011;9211;48.818;9.312;2023-08-06T01:40:14;6.20;;;4.35;;
18172;SDS011;9211;48.818;9.312;2023-08-06T01:42:41;7.30;;;4.10;;
18172;SDS011;9211;48.818;9.312;2023-08-06T01:45:08;6.28;;;4.22;;
18172;SDS011;9211;48.818;9.312;2023-08-06T01:47:35;6.10;;;4.30;;
18172;SDS011;9211;48.818;9.312;2023-08-06T01:50:02;5.93;;;4.20;;
18172;SDS011;9211;48.818;9.312;2023-08-06T01:52:30;6.13;;;4.50;;
18172;SDS011;9211;48.818;9.312;2023-08-06T01:54:59;6.35;;;4.13;;
18172;SDS011;9211;48.818;9.312;2023-08-06T01:57:25;6.88;;;4.43;;
18172;SDS011;9211;48.818;9.312;2023-08-06T01:59:52;8.13;;;4.43;;
18172;SDS011;9211;48.818;9.312;2023-08-06T02:02:19;6.55;;;4.40;;
18172;SDS011;9211;48.818;9.312;2023-08-06T02:04:46;5.90;;;4.00;;
18172;SDS011;9211;48.818;9.312;2023-08-06T02:07:13;5.37;;;3.53;;
18172;SDS011;9211;48.818;9.312;2023-08-06T02:09:42;6.53;;;3.40;;
18172;SDS011;9211;48.818;9.312;2023-08-06T02:12:10;6.05;;;3.10;;
18172;SDS011;9211;48.818;9.312;2023-08-06T02:14:37;5.38;;;3.10;;
18172;SDS011;9211;48.818;9.312;2023-08-06T02:17:05;4.45;;;3.05;;
18172;SDS011;9211;48.818;9.312;2023-08-06T02:19:32;7.32;;;3.13;;
18172;SDS011;9211;48.818;9.312;2023-08-06T02:21:58;6.20;;;3.40;;
18172;SDS011;9211;48.818;9.312;2023-08-06T02:24:27;4.85;;;3.60;;
18172;SDS011;9211;48.818;9.312;2023-08-06T02:26:54;5.43;;;3.72;;
18172;SDS011;9211;48.818;9.312;2023-08-06T02:29:22;6.63;;;3.80;;
18172;SDS011;9211;48.818;9.312;2023-08-06T02:31:49;6.30;;;3.87;;
18172;SDS011;9211;48.818;9.312;2023-08-06T02:34:16;6.18;;;3.97;;
18172;SDS011;9211;48.818;9.312;2023-08-06T02:36:44;5.43;;;4.00;;
18172;SDS011;9211;48.818;9.312;2023-08-06T02:39:11;5.78;;;3.60;;
18172;SDS011;9211;48.818;9.312;2023-08-06T02:41:37;6.38;;;3.80;;
18172;SDS011;9211;48.818;9.312;2023-08-06T02:44:04;6.15;;;3.65;;
18172;SDS011;9211;48.818;9.312;2023-08-06T02:46:33;5.40;;;3.23;;
18172;SDS011;9211;48.818;9.312;2023-08-06T02:48:59;5.07;;;3.38;;
18172;SDS011;9211;48.818;9.312;2023-08-06T02:51:26;5.00;;;3.37;;
18172;SDS011;9211;48.818;9.312;2023-08-06T02:53:53;4.60;;;3.30;;
18172;SDS011;9211;48.818;9.312;2023-08-06T02:56:20;5.18;;;3.05;;
18172;SDS011;9211;48.818;9.312;2023-08-06T02:58:56;4.63;;;2.90;;
18172;SDS011;9211;48.818;9.312;2023-08-06T03:01:41;4.35;;;2.75;;
18172;SDS011;9211;48.818;9.312;2023-08-06T03:04:16;5.38;;;3.10;;
18172;SDS011;9211;48.818;9.312;2023-08-06T03:06:45;4.23;;;2.80;;
18172;SDS011;9211;48.818;9.312;2023-08-06T03:09:12;3.53;;;2.42;;
18172;SDS011;9211;48.818;9.312;2023-08-06T03:11:39;4.90;;;2.60;;
18172;SDS011;9211;48.818;9.312;2023-08-06T03:14:11;4.22;;;2.60;;
18172;SDS011;9211;48.818;9.312;2023-08-06T03:16:38;5.32;;;2.65;;
18172;SDS011;9211;48.818;9.312;2023-08-06T03:19:06;6.07;;;2.70;;
18172;SDS011;9211;48.818;9.312;2023-08-06T03:21:34;6.05;;;2.40;;
18172;SDS011;9211;48.818;9.312;2023-08-06T03:24:02;5.18;;;2.35;;
18172;SDS011;9211;48.818;9.312;2023-08-06T03:26:31;4.53;;;2.40;;
18172;SDS011;9211;48.818;9.312;2023-08-06T03:28:58;5.50;;;2.42;;
18172;SDS011;9211;48.818;9.312;2023-08-06T03:31:28;5.88;;;2.30;;
18172;SDS011;9211;48.818;9.312;2023-08-06T03:33:55;5.18;;;2.42;;
18172;SDS011;9211;48.818;9.312;2023-08-06T03:36:26;6.10;;;2.35;;
18172;SDS011;9211;48.818;9.312;2023-08-06T03:38:54;3.70;;;2.40;;
18172;SDS011;9211;48.818;9.312;2023-08-06T03:41:20;4.63;;;2.30;;
18172;SDS011;9211;48.818;9.312;2023-08-06T03:43:48;5.13;;;2.30;;
18172;SDS011;9211;48.818;9.312;2023-08-06T03:46:21;6.10;;;2.05;;
18172;SDS011;9211;48.818;9.312;2023-08-06T03:48:48;3.53;;;2.08;;
18172;SDS011;9211;48.818;9.312;2023-08-06T03:51:15;3.57;;;2.17;;
18172;SDS011;9211;48.818;9.312;2023-08-06T03:53:45;5.90;;;2.37;;
18172;SDS011;9211;48.818;9.312;2023-08-06T03:56:12;3.97;;;2.10;;
18172;SDS011;9211;48.818;9.312;2023-08-06T03:58:39;4.77;;;2.17;;
18172;SDS011;9211;48.818;9.312;2023-08-06T04:01:06;4.30;;;2.17;;
18172;SDS011;9211;48.818;9.312;2023-08-06T04:03:39;4.55;;;2.38;;
18172;SDS011;9211;48.818;9.312;2023-08-06T04:06:06;4.88;;;2.40;;
18172;SDS011;9211;48.818;9.312;2023-08-06T04:08:35;3.80;;;2.22;;
18172;SDS011;9211;48.818;9.312;2023-08-06T04:11:03;3.85;;;2.10;;
18172;SDS011;9211;48.818;9.312;2023-08-06T04:13:30;4.63;;;2.13;;
18172;SDS011;9211;48.818;9.312;2023-08-06T04:16:00;5.15;;;2.13;;
18172;SDS011;9211;48.818;9.312;2023-08-06T04:18:27;4.00;;;2.45;;
18172;SDS011;9211;48.818;9.312;2023-08-06T04:20:54;4.15;;;2.20;;
18172;SDS011;9211;48.818;9.312;2023-08-06T04:23:22;5.00;;;2.30;;
18172;SDS011;9211;48.818;9.312;2023-08-06T04:25:52;4.32;;;2.30;;
18172;SDS011;9211;48.818;9.312;2023-08-06T04:28:25;4.73;;;2.10;;
18172;SDS011;9211;48.818;9.312;2023-08-06T04:30:52;6.60;;;2.30;;
18172;SDS011;9211;48.818;9.312;2023-08-06T04:33:19;6.35;;;2.60;;
18172;SDS011;9211;48.818;9.312;2023-08-06T04:35:47;4.85;;;2.45;;
18172;SDS011;9211;48.818;9.312;2023-08-06T04:38:13;4.15;;;2.22;;
18172;SDS011;9211;48.818;9.312;2023-08-06T04:40:40;5.10;;;2.22;;
18172;SDS011;9211;48.818;9.312;2023-08-06T04:43:08;3.38;;;2.15;;
18172;SDS011;9211;48.818;9.312;2023-08-06T04:45:36;3.83;;;2.30;;
18172;SDS011;9211;48.818;9.312;2023-08-06T04:48:03;4.55;;;2.20;;
18172;SDS011;9211;48.818;9.312;2023-08-06T04:50:30;5.83;;;2.17;;
18172;SDS011;9211;48.818;9.312;2023-08-06T04:52:57;5.53;;;2.10;;
18172;SDS011;9211;48.818;9.312;2023-08-06T04:55:23;3.92;;;2.10;;
18172;SDS011;9211;48.818;9.312;2023-08-06T04:57:50;4.03;;;1.80;;
18172;SDS011;9211;48.818;9.312;2023-08-06T05:00:17;4.70;;;2.03;;
18172;SDS011;9211;48.818;9.312;2023-08-06T05:02:45;4.32;;;1.90;;
18172;SDS011;9211;48.818;9.312;2023-08-06T05:05:12;6.70;;;1.80;;
18172;SDS011;9211;48.818;9.312;2023-08-06T05:07:39;4.00;;;1.80;;
18172;SDS011;9211;48.818;9.312;2023-08-06T05:10:06;3.00;;;1.67;;
18172;SDS011;9211;48.818;9.312;2023-08-06T05:12:33;3.90;;;1.70;;
18172;SDS011;9211;48.818;9.312;2023-08-06T05:15:00;4.00;;;1.80;;
18172;SDS011;9211;48.818;9.312;2023-08-06T05:17:27;4.82;;;1.80;;
18172;SDS011;9211;48.818;9.312;2023-08-06T05:19:55;5.05;;;1.67;;
18172;SDS011;9211;48.818;9.312;2023-08-06T05:22:22;3.30;;;1.60;;
18172;SDS011;9211;48.818;9.312;2023-08-06T05:24:49;5.30;;;2.00;;
18172;SDS011;9211;48.818;9.312;2023-08-06T05:27:16;4.05;;;1.80;;
18172;SDS011;9211;48.818;9.312;2023-08-06T05:29:44;3.63;;;1.80;;
18172;SDS011;9211;48.818;9.312;2023-08-06T05:32:11;3.75;;;1.60;;
18172;SDS011;9211;48.818;9.312;2023-08-06T05:34:37;4.75;;;1.88;;
18172;SDS011;9211;48.818;9.312;2023-08-06T05:37:06;5.20;;;1.70;;
18172;SDS011;9211;48.818;9.312;2023-08-06T05:39:33;3.65;;;1.67;;
18172;SDS011;9211;48.818;9.312;2023-08-06T05:41:59;3.60;;;1.30;;
18172;SDS011;9211;48.818;9.312;2023-08-06T05:44:26;2.63;;;1.38;;
18172;SDS011;9211;48.818;9.312;2023-08-06T05:46:53;3.53;;;1.42;;
18172;SDS011;9211;48.818;9.312;2023-08-06T05:49:20;4.90;;;1.60;;
18172;SDS011;9211;48.818;9.312;2023-08-06T05:51:47;5.57;;;1.80;;
18172;SDS011;9211;48.818;9.312;2023-08-06T05:54:15;2.80;;;1.30;;
18172;SDS011;9211;48.818;9.312;2023-08-06T05:56:42;3.42;;;1.30;;
18172;SDS011;9211;48.818;9.312;2023-08-06T05:59:09;2.80;;;1.23;;
18172;SDS011;9211;48.818;9.312;2023-08-06T06:01:36;2.72;;;1.10;;
18172;SDS011;9211;48.818;9.312;2023-08-06T06:04:03;3.63;;;1.27;;
18172;SDS011;9211;48.818;9.312;2023-08-06T06:06:30;2.72;;;1.10;;
18172;SDS011;9211;48.818;9.312;2023-08-06T06:08:56;3.38;;;1.20;;
18172;SDS011;9211;48.818;9.312;2023-08-06T06:11:25;4.30;;;1.10;;
18172;SDS011;9211;48.818;9.312;2023-08-06T06:13:52;3.40;;;1.10;;
18172;SDS011;9211;48.818;9.312;2023-08-06T06:16:19;2.67;;;0.90;;
18172;SDS011;9211;48.818;9.312;2023-08-06T06:18:45;2.70;;;0.90;;
18172;SDS011;9211;48.818;9.312;2023-08-06T06:21:12;4.60;;;1.20;;
18172;SDS011;9211;48.818;9.312;2023-08-06T06:23:39;2.40;;;0.88;;
18172;SDS011;9211;48.818;9.312;2023-08-06T06:26:06;2.33;;;0.80;;
18172;SDS011;9211;48.818;9.312;2023-08-06T06:28:34;3.90;;;0.70;;
18172;SDS011;9211;48.818;9.312;2023-08-06T06:31:01;1.60;;;0.73;;
18172;SDS011;9211;48.818;9.312;2023-08-06T06:33:28;3.47;;;0.80;;
18172;SDS011;9211;48.818;9.312;2023-08-06T06:35:55;2.13;;;0.60;;
18172;SDS011;9211;48.818;9.312;2023-08-06T06:38:22;2.63;;;0.60;;
18172;SDS011;9211;48.818;9.312;2023-08-06T06:40:53;1.90;;;0.60;;
18172;SDS011;9211;48.818;9.312;2023-08-06T06:43:20;1.83;;;0.60;;
18172;SDS011;9211;48.818;9.312;2023-08-06T06:45:51;2.03;;;0.52;;
18172;SDS011;9211;48.818;9.312;2023-08-06T06:48:18;2.23;;;0.67;;
18172;SDS011;9211;48.818;9.312;2023-08-06T06:50:46;1.70;;;0.70;;
18172;SDS011;9211;48.818;9.312;2023-08-06T06:53:14;3.72;;;0.80;;
18172;SDS011;9211;48.818;9.312;2023-08-06T06:55:43;2.45;;;0.70;;
18172;SDS011;9211;48.818;9.312;2023-08-06T06:58:09;1.85;;;0.50;;
18172;SDS011;9211;48.818;9.312;2023-08-06T07:00:36;2.63;;;0.60;;
18172;SDS011;9211;48.818;9.312;2023-08-06T07:03:05;1.50;;;0.60;;
18172;SDS011;9211;48.818;9.312;2023-08-06T07:05:31;2.20;;;0.80;;
18172;SDS011;9211;48.818;9.312;2023-08-06T07:08:05;1.52;;;0.60;;
18172;SDS011;9211;48.818;9.312;2023-08-06T07:10:35;1.40;;;0.50;;
18172;SDS011;9211;48.818;9.312;2023-08-06T07:13:02;1.33;;;0.60;;
18172;SDS011;9211;48.818;9.312;2023-08-06T07:15:29;2.10;;;0.60;;
18172;SDS011;9211;48.818;9.312;2023-08-06T07:17:56;4.25;;;0.57;;
18172;SDS011;9211;48.818;9.312;2023-08-06T07:20:24;2.77;;;0.50;;
18172;SDS011;9211;48.818;9.312;2023-08-06T07:22:54;1.65;;;0.60;;
18172;SDS011;9211;48.818;9.312;2023-08-06T07:25:21;2.40;;;0.55;;
18172;SDS011;9211;48.818;9.312;2023-08-06T07:27:48;1.52;;;0.60;;
18172;SDS011;9211;48.818;9.312;2023-08-06T07:30:14;1.45;;;0.40;;
18172;SDS011;9211;48.818;9.312;2023-08-06T07:32:42;2.25;;;0.50;;
18172;SDS011;9211;48.818;9.312;2023-08-06T07:35:09;3.22;;;0.68;;
18172;SDS011;9211;48.818;9.312;2023-08-06T07:37:39;1.63;;;0.50;;
18172;SDS011;9211;48.818;9.312;2023-08-06T07:40:06;1.13;;;0.50;;
18172;SDS011;9211;48.818;9.312;2023-08-06T07:42:35;1.20;;;0.60;;
18172;SDS011;9211;48.818;9.312;2023-08-06T07:45:02;1.70;;;0.50;;
18172;SDS011;9211;48.818;9.312;2023-08-06T07:47:32;1.27;;;0.50;;
18172;SDS011;9211;48.818;9.312;2023-08-06T07:49:59;1.27;;;0.43;;
18172;SDS011;9211;48.818;9.312;2023-08-06T07:52:26;2.00;;;0.40;;
18172;SDS011;9211;48.818;9.312;2023-08-06T07:54:55;0.90;;;0.40;;
18172;SDS011;9211;48.818;9.312;2023-08-06T07:57:22;0.50;;;0.30;;
18172;SDS011;9211;48.818;9.312;2023-08-06T07:59:48;0.77;;;0.40;;
18172;SDS011;9211;48.818;9.312;2023-08-06T08:02:15;0.60;;;0.30;;
18172;SDS011;9211;48.818;9.312;2023-08-06T08:04:42;1.45;;;0.40;;
18172;SDS011;9211;48.818;9.312;2023-08-06T08:07:12;1.55;;;0.35;;
18172;SDS011;9211;48.818;9.312;2023-08-06T08:09:39;0.50;;;0.30;;
18172;SDS011;9211;48.818;9.312;2023-08-06T08:12:08;0.90;;;0.30;;
18172;SDS011;9211;48.818;9.312;2023-08-06T08:14:35;0.80;;;0.20;;
18172;SDS011;9211;48.818;9.312;2023-08-06T08:17:02;0.60;;;0.30;;
18172;SDS011;9211;48.818;9.312;2023-08-06T08:19:30;1.13;;;0.30;;
18172;SDS011;9211;48.818;9.312;2023-08-06T08:21:57;1.42;;;0.30;;
18172;SDS011;9211;48.818;9.312;2023-08-06T08:24:25;1.30;;;0.30;;
18172;SDS011;9211;48.818;9.312;2023-08-06T08:26:52;1.17;;;0.20;;
18172;SDS011;9211;48.818;9.312;2023-08-06T08:29:20;0.60;;;0.20;;
18172;SDS011;9211;48.818;9.312;2023-08-06T08:31:47;0.15;;;0.15;;
18172;SDS011;9211;48.818;9.312;2023-08-06T08:34:15;0.40;;;0.13;;
18172;SDS011;9211;48.818;9.312;2023-08-06T08:36:42;1.00;;;0.20;;
18172;SDS011;9211;48.818;9.312;2023-08-06T08:39:12;0.50;;;0.20;;
18172;SDS011;9211;48.818;9.312;2023-08-06T08:41:39;0.40;;;0.20;;
18172;SDS011;9211;48.818;9.312;2023-08-06T08:44:07;0.25;;;0.17;;
18172;SDS011;9211;48.818;9.312;2023-08-06T08:46:37;0.20;;;0.10;;
18172;SDS011;9211;48.818;9.312;2023-08-06T08:49:06;1.30;;;0.50;;
18172;SDS011;9211;48.818;9.312;2023-08-06T08:51:33;2.75;;;0.90;;
18172;SDS011;9211;48.818;9.312;2023-08-06T08:54:01;3.50;;;0.80;;
18172;SDS011;9211;48.818;9.312;2023-08-06T08:56:29;2.60;;;0.40;;
18172;SDS011;9211;48.818;9.312;2023-08-06T08:58:57;2.35;;;0.50;;
18172;SDS011;9211;48.818;9.312;2023-08-06T09:01:24;0.32;;;0.30;;
18172;SDS011;9211;48.818;9.312;2023-08-06T09:03:53;0.30;;;0.30;;
18172;SDS011;9211;48.818;9.312;2023-08-06T09:06:21;0.22;;;0.20;;
18172;SDS011;9211;48.818;9.312;2023-08-06T09:08:54;1.30;;;0.40;;
18172;SDS011;9211;48.818;9.312;2023-08-06T09:11:27;0.75;;;0.35;;
18172;SDS011;9211;48.818;9.312;2023-08-06T09:13:56;0.95;;;0.30;;
18172;SDS011;9211;48.818;9.312;2023-08-06T09:16:23;1.20;;;0.30;;
18172;SDS011;9211;48.818;9.312;2023-08-06T09:18:50;0.63;;;0.20;;
18172;SDS011;9211;48.818;9.312;2023-08-06T09:21:18;0.20;;;0.20;;
18172;SDS011;9211;48.818;9.312;2023-08-06T09:23:45;0.80;;;0.20;;
18172;SDS011;9211;48.818;9.312;2023-08-06T09:26:12;0.82;;;0.20;;
18172;SDS011;9211;48.818;9.312;2023-08-06T09:28:39;0.20;;;0.10;;
18172;SDS011;9211;48.818;9.312;2023-08-06T09:31:08;0.90;;;0.43;;
18172;SDS011;9211;48.818;9.312;2023-08-06T09:33:36;0.22;;;0.20;;
18172;SDS011;9211;48.818;9.312;2023-08-06T09:36:07;0.10;;;0.10;;
18172;SDS011;9211;48.818;9.312;2023-08-06T09:38:38;0.50;;;0.20;;
18172;SDS011;9211;48.818;9.312;2023-08-06T09:41:06;1.13;;;0.20;;
18172;SDS011;9211;48.818;9.312;2023-08-06T09:43:39;2.55;;;0.20;;
18172;SDS011;9211;48.818;9.312;2023-08-06T09:46:10;0.20;;;0.20;;
18172;SDS011;9211;48.818;9.312;2023-08-06T09:48:39;0.60;;;0.20;;
18172;SDS011;9211;48.818;9.312;2023-08-06T09:51:07;0.90;;;0.20;;
18172;SDS011;9211;48.818;9.312;2023-08-06T09:53:35;1.38;;;0.22;;
18172;SDS011;9211;48.818;9.312;2023-08-06T09:56:06;0.55;;;0.20;;
18172;SDS011;9211;48.818;9.312;2023-08-06T09:58:34;0.20;;;0.20;;
18172;SDS011;9211;48.818;9.312;2023-08-06T10:01:04;1.00;;;0.30;;
18172;SDS011;9211;48.818;9.312;2023-08-06T10:03:31;1.60;;;0.40;;
18172;SDS011;9211;48.818;9.312;2023-08-06T10:06:00;0.60;;;0.30;;
18172;SDS011;9211;48.818;9.312;2023-08-06T10:08:31;0.57;;;0.38;;
18172;SDS011;9211;48.818;9.312;2023-08-06T10:10:59;0.50;;;0.40;;
18172;SDS011;9211;48.818;9.312;2023-08-06T10:13:30;0.65;;;0.30;;
18172;SDS011;9211;48.818;9.312;2023-08-06T10:15:59;0.73;;;0.20;;
18172;SDS011;9211;48.818;9.312;2023-08-06T10:18:27;0.20;;;0.20;;
18172;SDS011;9211;48.818;9.312;2023-08-06T10:20:55;0.30;;;0.10;;
18172;SDS011;9211;48.818;9.312;2023-08-06T10:23:22;0.40;;;0.20;;
18172;SDS011;9211;48.818;9.312;2023-08-06T10:26:01;0.45;;;0.20;;
18172;SDS011;9211;48.818;9.312;2023-08-06T10:28:33;0.43;;;0.20;;
18172;SDS011;9211;48.818;9.312;2023-08-06T10:31:01;0.90;;;0.20;;
18172;SDS011;9211;48.818;9.312;2023-08-06T10:33:39;0.30;;;0.10;;
18172;SDS011;9211;48.818;9.312;2023-08-06T10:36:08;0.10;;;0.10;;
18172;SDS011;9211;48.818;9.312;2023-08-06T10:38:45;0.80;;;0.22;;
18172;SDS011;9211;48.818;9.312;2023-08-06T10:41:22;0.52;;;0.20;;
18172;SDS011;9211;48.818;9.312;2023-08-06T10:43:57;0.55;;;0.28;;
18172;SDS011;9211;48.818;9.312;2023-08-06T10:46:33;0.53;;;0.30;;
18172;SDS011;9211;48.818;9.312;2023-08-06T10:48:59;2.00;;;0.30;;
18172;SDS011;9211;48.818;9.312;2023-08-06T10:51:27;0.90;;;0.30;;
18172;SDS011;9211;48.818;9.312;2023-08-06T10:53:54;0.65;;;0.30;;
18172;SDS011;9211;48.818;9.312;2023-08-06T10:56:24;0.85;;;0.20;;
18172;SDS011;9211;48.818;9.312;2023-08-06T10:58:53;0.80;;;0.30;;
18172;SDS011;9211;48.818;9.312;2023-08-06T11:01:22;0.55;;;0.22;;
18172;SDS011;9211;48.818;9.312;2023-08-06T11:03:50;0.40;;;0.30;;
18172;SDS011;9211;48.818;9.312;2023-08-06T11:06:18;1.10;;;0.20;;
18172;SDS011;9211;48.818;9.312;2023-08-06T11:08:49;1.35;;;0.20;;
18172;SDS011;9211;48.818;9.312;2023-08-06T11:11:18;0.30;;;0.20;;
18172;SDS011;9211;48.818;9.312;2023-08-06T11:13:47;0.77;;;0.20;;
18172;SDS011;9211;48.818;9.312;2023-08-06T11:16:15;1.17;;;0.20;;
18172;SDS011;9211;48.818;9.312;2023-08-06T11:18:43;0.90;;;0.20;;
18172;SDS011;9211;48.818;9.312;2023-08-06T11:21:11;0.35;;;0.20;;
18172;SDS011;9211;48.818;9.312;2023-08-06T11:23:38;1.30;;;0.20;;
18172;SDS011;9211;48.818;9.312;2023-08-06T11:26:06;1.23;;;0.40;;
18172;SDS011;9211;48.818;9.312;2023-08-06T11:28:33;1.30;;;0.30;;
18172;SDS011;9211;48.818;9.312;2023-08-06T11:31:02;1.67;;;0.40;;
18172;SDS011;9211;48.818;9.312;2023-08-06T11:33:29;0.70;;;0.30;;
18172;SDS011;9211;48.818;9.312;2023-08-06T11:35:56;0.70;;;0.40;;
18172;SDS011;9211;48.818;9.312;2023-08-06T11:38:24;0.90;;;0.40;;
18172;SDS011;9211;48.818;9.312;2023-08-06T11:40:52;2.78;;;0.50;;
18172;SDS011;9211;48.818;9.312;2023-08-06T11:43:19;0.63;;;0.40;;
18172;SDS011;9211;48.818;9.312;2023-08-06T11:45:47;1.27;;;0.65;;
18172;SDS011;9211;48.818;9.312;2023-08-06T11:48:17;0.97;;;0.47;;
18172;SDS011;9211;48.818;9.312;2023-08-06T11:50:44;1.75;;;0.70;;
18172;SDS011;9211;48.818;9.312;2023-08-06T11:53:19;1.45;;;0.60;;
18172;SDS011;9211;48.818;9.312;2023-08-06T11:55:46;2.85;;;0.75;;
18172;SDS011;9211;48.818;9.312;2023-08-06T11:58:13;1.75;;;0.68;;
18172;SDS011;9211;48.818;9.312;2023-08-06T12:00:43;1.50;;;0.70;;
18172;SDS011;9211;48.818;9.312;2023-08-06T12:03:11;1.70;;;0.80;;
18172;SDS011;9211;48.818;9.312;2023-08-06T12:05:39;2.42;;;0.88;;
18172;SDS011;9211;48.818;9.312;2023-08-06T12:08:06;3.70;;;1.10;;
18172;SDS011;9211;48.818;9.312;2023-08-06T12:10:35;2.00;;;0.90;;
18172;SDS011;9211;48.818;9.312;2023-08-06T12:13:02;1.60;;;0.90;;
18172;SDS011;9211;48.818;9.312;2023-08-06T12:15:29;1.90;;;1.00;;
18172;SDS011;9211;48.818;9.312;2023-08-06T12:17:56;2.47;;;1.13;;
18172;SDS011;9211;48.818;9.312;2023-08-06T12:20:23;2.92;;;1.10;;
18172;SDS011;9211;48.818;9.312;2023-08-06T12:22:51;2.70;;;1.52;;
18172;SDS011;9211;48.818;9.312;2023-08-06T12:25:18;2.20;;;1.10;;
18172;SDS011;9211;48.818;9.312;2023-08-06T12:27:45;2.35;;;1.20;;
18172;SDS011;9211;48.818;9.312;2023-08-06T12:30:13;2.40;;;1.30;;
18172;SDS011;9211;48.818;9.312;2023-08-06T12:32:40;3.40;;;1.40;;
18172;SDS011;9211;48.818;9.312;2023-08-06T12:35:07;2.28;;;1.20;;
18172;SDS011;9211;48.818;9.312;2023-08-06T12:37:34;4.18;;;1.33;;
18172;SDS011;9211;48.818;9.312;2023-08-06T12:40:05;2.50;;;1.20;;
18172;SDS011;9211;48.818;9.312;2023-08-06T12:42:33;2.90;;;1.35;;
18172;SDS011;9211;48.818;9.312;2023-08-06T12:44:59;2.38;;;1.30;;
18172;SDS011;9211;48.818;9.312;2023-08-06T12:47:27;2.40;;;1.13;;
18172;SDS011;9211;48.818;9.312;2023-08-06T12:49:54;2.47;;;1.23;;
18172;SDS011;9211;48.818;9.312;2023-08-06T12:52:21;3.50;;;1.10;;
18172;SDS011;9211;48.818;9.312;2023-08-06T12:54:48;3.38;;;1.20;;
18172;SDS011;9211;48.818;9.312;2023-08-06T12:57:16;2.30;;;1.20;;
18172;SDS011;9211;48.818;9.312;2023-08-06T12:59:43;2.20;;;1.10;;
18172;SDS011;9211;48.818;9.312;2023-08-06T13:02:10;1.95;;;1.00;;
18172;SDS011;9211;48.818;9.312;2023-08-06T13:04:37;2.15;;;1.17;;
18172;SDS011;9211;48.818;9.312;2023-08-06T13:07:05;2.00;;;0.88;;
18172;SDS011;9211;48.818;9.312;2023-08-06T13:09:34;1.10;;;0.70;;
18172;SDS011;9211;48.818;9.312;2023-08-06T13:12:01;1.63;;;0.80;;
18172;SDS011;9211;48.818;9.312;2023-08-06T13:14:32;2.88;;;0.82;;
18172;SDS011;9211;48.818;9.312;2023-08-06T13:16:59;1.53;;;0.80;;
18172;SDS011;9211;48.818;9.312;2023-08-06T13:19:27;1.13;;;0.70;;
18172;SDS011;9211;48.818;9.312;2023-08-06T13:21:58;1.73;;;0.80;;
18172;SDS011;9211;48.818;9.312;2023-08-06T13:24:28;2.97;;;1.00;;
18172;SDS011;9211;48.818;9.312;2023-08-06T13:26:55;1.67;;;0.80;;
18172;SDS011;9211;48.818;9.312;2023-08-06T13:29:21;1.88;;;0.90;;
18172;SDS011;9211;48.818;9.312;2023-08-06T13:31:50;2.15;;;0.80;;
18172;SDS011;9211;48.818;9.312;2023-08-06T13:34:17;1.98;;;0.80;;
18172;SDS011;9211;48.818;9.312;2023-08-06T13:36:44;1.40;;;0.80;;
18172;SDS011;9211;48.818;9.312;2023-08-06T13:39:10;1.63;;;0.80;;
18172;SDS011;9211;48.818;9.312;2023-08-06T13:41:37;2.13;;;0.90;;
18172;SDS011;9211;48.818;9.312;2023-08-06T13:44:05;1.33;;;0.60;;
18172;SDS011;9211;48.818;9.312;2023-08-06T13:46:32;1.50;;;0.70;;
18172;SDS011;9211;48.818;9.312;2023-08-06T13:49:01;0.82;;;0.60;;
18172;SDS011;9211;48.818;9.312;2023-08-06T13:51:27;0.85;;;0.40;;
18172;SDS011;9211;48.818;9.312;2023-08-06T13:53:54;1.25;;;0.47;;
18172;SDS011;9211;48.818;9.312;2023-08-06T13:56:22;0.77;;;0.52;;
18172;SDS011;9211;48.818;9.312;2023-08-06T13:58:49;1.85;;;0.50;;
18172;SDS011;9211;48.818;9.312;2023-08-06T14:01:16;1.00;;;0.50;;
18172;SDS011;9211;48.818;9.312;2023-08-06T14:03:44;1.00;;;0.60;;
18172;SDS011;9211;48.818;9.312;2023-08-06T14:06:12;0.60;;;0.40;;
18172;SDS011;9211;48.818;9.312;2023-08-06T14:08:39;0.98;;;0.40;;
18172;SDS011;9211;48.818;9.312;2023-08-06T14:11:06;0.95;;;0.45;;
18172;SDS011;9211;48.818;9.312;2023-08-06T14:13:32;0.70;;;0.50;;
18172;SDS011;9211;48.818;9.312;2023-08-06T14:15:59;1.10;;;0.50;;
18172;SDS011;9211;48.818;9.312;2023-08-06T14:18:27;3.03;;;0.50;;
18172;SDS011;9211;48.818;9.312;2023-08-06T14:20:54;2.80;;;0.60;;
18172;SDS011;9211;48.818;9.312;2023-08-06T14:23:22;1.38;;;0.50;;
18172;SDS011;9211;48.818;9.312;2023-08-06T14:25:49;1.05;;;0.60;;
18172;SDS011;9211;48.818;9.312;2023-08-06T14:28:15;2.20;;;0.70;;
18172;SDS011;9211;48.818;9.312;2023-08-06T14:30:42;1.95;;;0.60;;
18172;SDS011;9211;48.818;9.312;2023-08-06T14:33:09;1.15;;;0.60;;
18172;SDS011;9211;48.818;9.312;2023-08-06T14:35:36;1.30;;;0.70;;
18172;SDS011;9211;48.818;9.312;2023-08-06T14:38:03;1.38;;;0.60;;
18172;SDS011;9211;48.818;9.312;2023-08-06T14:40:31;1.55;;;0.70;;
18172;SDS011;9211;48.818;9.312;2023-08-06T14:43:02;4.57;;;0.70;;
18172;SDS011;9211;48.818;9.312;2023-08-06T14:45:29;1.70;;;0.70;;
18172;SDS011;9211;48.818;9.312;2023-08-06T14:47:56;1.95;;;0.82;;
18172;SDS011;9211;48.818;9.312;2023-08-06T14:50:23;1.40;;;0.90;;
18172;SDS011;9211;48.818;9.312;2023-08-06T14:52:50;1.10;;;0.60;;
18172;SDS011;9211;48.818;9.312;2023-08-06T14:55:17;1.88;;;0.80;;
18172;SDS011;9211;48.818;9.312;2023-08-06T14:57:50;2.42;;;0.77;;
18172;SDS011;9211;48.818;9.312;2023-08-06T15:00:17;2.30;;;0.60;;
18172;SDS011;9211;48.818;9.312;2023-08-06T15:02:44;1.25;;;0.60;;
18172;SDS011;9211;48.818;9.312;2023-08-06T15:05:11;1.67;;;0.68;;